sensor_id;sensor_type;location;lat;lon;timestamp;P1;durP1;ratioP1;P2;durP2;ratioP2
38248;SDS011;24045;51.138;17.126;2023-07-02T00:10:07;12.70;;;8.30;;
38248;SDS011;24045;51.138;17.126;2023-07-02T00:25:11;14.10;;;9.00;;
38248;SDS011;24045;51.138;17.126;2023-07-02T00:40:15;10.80;;;6.40;;
38248;SDS011;24045;51.138;17.126;2023-07-02T00:55:18;13.10;;;6.40;;
38248;SDS011;24045;51.138;17.126;2023-07-02T01:10:21;7.70;;;4.00;;
38248;SDS011;24045;51.138;17.126;2023-07-02T01:25:24;5.70;;;2.70;;
38248;SDS011;24045;51.138;17.126;2023-07-02T01:40:27;7.90;;;2.90;;
38248;SDS011;24045;51.138;17.126;2023-07-02T01:55:30;6.80;;;2.50;;
38248;SDS011;24045;51.138;17.126;2023-07-02T02:10:33;7.40;;;2.30;;
38248;SDS011;24045;51.138;17.126;2023-07-02T02:25:36;7.90;;;2.20;;
38248;SDS011;24045;51.138;17.126;2023-07-02T02:40:39;3.80;;;2.00;;
38248;SDS011;24045;51.138;17.126;2023-07-02T02:55:42;4.30;;;1.80;;
38248;SDS011;24045;51.138;17.126;2023-07-02T03:10:44;3.70;;;1.40;;
38248;SDS011;24045;51.138;17.126;2023-07-02T03:25:48;3.50;;;1.20;;
38248;SDS011;24045;51.138;17.126;2023-07-02T03:40:50;3.00;;;1.30;;
38248;SDS011;24045;51.138;17.126;2023-07-02T03:55:53;2.10;;;1.30;;
38248;SDS011;24045;51.138;17.126;2023-07-02T04:10:56;4.70;;;1.80;;
38248;SDS011;24045;51.138;17.126;2023-07-02T04:25:59;5.40;;;1.70;;
38248;SDS011;24045;51.138;17.126;2023-07-02T04:41:20;3.00;;;1.50;;
38248;SDS011;24045;51.138;17.126;2023-07-02T04:56:24;5.50;;;1.70;;
38248;SDS011;24045;51.138;17.126;2023-07-02T05:11:26;3.90;;;1.90;;
38248;SDS011;24045;51.138;17.126;2023-07-02T05:26:29;3.70;;;1.70;;
38248;SDS011;24045;51.138;17.126;2023-07-02T05:41:32;4.40;;;2.00;;
38248;SDS011;24045;51.138;17.126;2023-07-02T05:56:34;5.80;;;2.10;;
38248;SDS011;24045;51.138;17.126;2023-07-02T06:11:37;4.60;;;2.10;;
38248;SDS011;24045;51.138;17.126;2023-07-02T06:26:40;6.50;;;2.00;;
38248;SDS011;24045;51.138;17.126;2023-07-02T06:41:43;4.70;;;2.50;;
38248;SDS011;24045;51.138;17.126;2023-07-02T06:56:46;3.70;;;2.00;;
38248;SDS011;24045;51.138;17.126;2023-07-02T07:11:49;3.70;;;1.90;;
38248;SDS011;24045;51.138;17.126;2023-07-02T07:26:52;4.70;;;2.30;;
38248;SDS011;24045;51.138;17.126;2023-07-02T07:41:55;4.00;;;2.10;;
38248;SDS011;24045;51.138;17.126;2023-07-02T07:56:57;7.50;;;2.20;;
38248;SDS011;24045;51.138;17.126;2023-07-02T08:12:00;5.20;;;3.10;;
38248;SDS011;24045;51.138;17.126;2023-07-02T08:27:03;4.00;;;2.00;;
38248;SDS011;24045;51.138;17.126;2023-07-02T08:42:07;3.90;;;2.20;;
38248;SDS011;24045;51.138;17.126;2023-07-02T08:57:10;4.00;;;2.30;;
38248;SDS011;24045;51.138;17.126;2023-07-02T09:12:22;6.00;;;2.30;;
38248;SDS011;24045;51.138;17.126;2023-07-02T09:27:39;5.60;;;2.50;;
38248;SDS011;24045;51.138;17.126;2023-07-02T09:42:44;6.30;;;2.70;;
38248;SDS011;24045;51.138;17.126;2023-07-02T09:57:53;5.00;;;2.80;;
38248;SDS011;24045;51.138;17.126;2023-07-02T10:12:56;5.20;;;2.50;;
38248;SDS011;24045;51.138;17.126;2023-07-02T10:27:59;5.50;;;2.40;;
38248;SDS011;24045;51.138;17.126;2023-07-02T10:43:03;5.00;;;2.60;;
38248;SDS011;24045;51.138;17.126;2023-07-02T10:58:08;4.30;;;2.50;;
38248;SDS011;24045;51.138;17.126;2023-07-02T11:28:19;6.60;;;2.00;;
38248;SDS011;24045;51.138;17.126;2023-07-02T11:43:22;3.00;;;2.10;;
38248;SDS011;24045;51.138;17.126;2023-07-02T11:58:25;4.20;;;2.10;;
38248;SDS011;24045;51.138;17.126;2023-07-02T12:13:28;4.60;;;2.60;;
38248;SDS011;24045;51.138;17.126;2023-07-02T12:28:31;3.40;;;1.90;;
38248;SDS011;24045;51.138;17.126;2023-07-02T12:43:34;3.70;;;2.30;;
38248;SDS011;24045;51.138;17.126;2023-07-02T12:58:37;4.30;;;2.10;;
38248;SDS011;24045;51.138;17.126;2023-07-02T13:13:39;7.30;;;2.60;;
38248;SDS011;24045;51.138;17.126;2023-07-02T13:28:43;5.20;;;2.20;;
38248;SDS011;24045;51.138;17.126;2023-07-02T13:43:49;6.20;;;2.60;;
38248;SDS011;24045;51.138;17.126;2023-07-02T13:59:09;3.20;;;2.00;;
38248;SDS011;24045;51.138;17.126;2023-07-02T14:14:12;4.00;;;2.10;;
38248;SDS011;24045;51.138;17.126;2023-07-02T14:29:15;6.60;;;2.50;;
38248;SDS011;24045;51.138;17.126;2023-07-02T14:44:19;6.10;;;3.40;;
38248;SDS011;24045;51.138;17.126;2023-07-02T14:59:22;9.00;;;5.40;;
38248;SDS011;24045;51.138;17.126;2023-07-02T15:14:25;6.80;;;2.90;;
38248;SDS011;24045;51.138;17.126;2023-07-02T15:29:27;6.90;;;3.20;;
38248;SDS011;24045;51.138;17.126;2023-07-02T15:44:30;7.70;;;3.00;;
38248;SDS011;24045;51.138;17.126;2023-07-02T15:59:33;8.20;;;2.90;;
38248;SDS011;24045;51.138;17.126;2023-07-02T16:31:19;4.80;;;2.80;;
38248;SDS011;24045;51.138;17.126;2023-07-02T16:46:31;5.80;;;2.50;;
38248;SDS011;24045;51.138;17.126;2023-07-02T17:01:34;4.70;;;2.40;;
38248;SDS011;24045;51.138;17.126;2023-07-02T17:16:37;4.70;;;2.50;;
38248;SDS011;24045;51.138;17.126;2023-07-02T17:31:40;4.70;;;2.50;;
38248;SDS011;24045;51.138;17.126;2023-07-02T17:46:45;6.70;;;3.00;;
38248;SDS011;24045;51.138;17.126;2023-07-02T18:01:50;3.80;;;2.70;;
38248;SDS011;24045;51.138;17.126;2023-07-02T18:16:53;8.20;;;3.60;;
38248;SDS011;24045;51.138;17.126;2023-07-02T18:31:57;7.50;;;3.60;;
38248;SDS011;24045;51.138;17.126;2023-07-02T18:47:08;6.30;;;3.20;;
38248;SDS011;24045;51.138;17.126;2023-07-02T19:02:14;6.30;;;3.80;;
38248;SDS011;24045;51.138;17.126;2023-07-02T19:17:20;6.50;;;4.30;;
38248;SDS011;24045;51.138;17.126;2023-07-02T19:32:24;9.10;;;4.50;;
38248;SDS011;24045;51.138;17.126;2023-07-02T19:47:29;8.20;;;4.50;;
38248;SDS011;24045;51.138;17.126;2023-07-02T20:02:35;10.40;;;4.90;;
38248;SDS011;24045;51.138;17.126;2023-07-02T20:17:39;10.30;;;5.00;;
38248;SDS011;24045;51.138;17.126;2023-07-02T20:32:42;13.30;;;6.10;;
38248;SDS011;24045;51.138;17.126;2023-07-02T20:47:50;25.20;;;17.50;;
38248;SDS011;24045;51.138;17.126;2023-07-02T21:02:54;13.90;;;8.30;;
38248;SDS011;24045;51.138;17.126;2023-07-02T21:17:57;13.50;;;7.00;;
38248;SDS011;24045;51.138;17.126;2023-07-02T21:32:59;14.10;;;9.90;;
38248;SDS011;24045;51.138;17.126;2023-07-02T21:48:05;15.30;;;9.60;;
38248;SDS011;24045;51.138;17.126;2023-07-02T22:03:08;11.60;;;8.20;;
38248;SDS011;24045;51.138;17.126;2023-07-02T22:18:11;8.30;;;5.00;;
38248;SDS011;24045;51.138;17.126;2023-07-02T22:33:14;10.20;;;5.60;;
38248;SDS011;24045;51.138;17.126;2023-07-02T22:48:17;11.00;;;5.00;;
38248;SDS011;24045;51.138;17.126;2023-07-02T23:03:19;10.60;;;6.20;;
38248;SDS011;24045;51.138;17.126;2023-07-02T23:18:22;11.20;;;6.20;;
38248;SDS011;24045;51.138;17.126;2023-07-02T23:48:28;11.20;;;6.90;;
